createdAt,value
2018-02-10T00:00:05.890Z,28.67
2018-02-10T00:02:33.223Z,28.67
2018-02-10T00:05:00.570Z,28.57
2018-02-10T00:07:27.924Z,28.53
2018-02-10T00:09:55.266Z,28.65
2018-02-10T00:12:22.614Z,28.61
2018-02-10T00:14:50.011Z,28.67
2018-02-10T00:17:17.342Z,28.72
2018-02-10T00:19:44.739Z,28.72
2018-02-10T00:22:12.171Z,28.70
2018-02-10T00:24:39.511Z,28.69
2018-02-10T00:27:06.897Z,28.61
2018-02-10T00:29:34.231Z,28.73
2018-02-10T00:32:01.574Z,28.80
2018-02-10T00:34:28.910Z,28.62
2018-02-10T00:36:56.283Z,28.69
2018-02-10T00:39:23.661Z,28.69
2018-02-10T00:41:50.997Z,28.74
2018-02-10T00:44:18.367Z,28.78
2018-02-10T00:46:45.759Z,28.68
2018-02-10T00:49:13.093Z,28.77
2018-02-10T00:51:40.425Z,28.83
2018-02-10T00:54:07.758Z,28.89
2018-02-10T00:56:35.097Z,28.68
2018-02-10T00:59:02.433Z,28.73
2018-02-10T01:01:29.801Z,28.80
2018-02-10T01:03:57.137Z,28.61
2018-02-10T01:06:24.551Z,28.77
2018-02-10T01:08:51.888Z,28.74
2018-02-10T01:11:19.271Z,28.72
2018-02-10T01:13:46.669Z,28.67
2018-02-10T01:16:14.061Z,28.78
2018-02-10T01:18:41.413Z,28.78
2018-02-10T01:21:08.745Z,28.72
2018-02-10T01:23:36.080Z,28.81
2018-02-10T01:26:03.470Z,28.82
2018-02-10T01:28:30.810Z,28.79
2018-02-10T01:30:58.156Z,28.67
2018-02-10T01:33:25.495Z,28.74
2018-02-10T01:35:52.859Z,28.67
2018-02-10T01:38:20.270Z,28.66
2018-02-10T01:40:47.620Z,28.75
2018-02-10T01:43:14.957Z,28.73
2018-02-10T01:45:42.316Z,28.64
2018-02-10T01:48:09.651Z,28.66
2018-02-10T01:50:37.033Z,28.75
2018-02-10T01:53:04.369Z,28.73
2018-02-10T01:55:31.742Z,28.78
2018-02-10T01:57:59.069Z,28.86
2018-02-10T02:00:26.444Z,28.75
2018-02-10T02:02:53.773Z,28.71
2018-02-10T02:05:21.108Z,28.71
2018-02-10T02:07:48.490Z,28.69
2018-02-10T02:10:15.878Z,28.61
2018-02-10T02:12:43.210Z,28.63
2018-02-10T02:15:10.542Z,28.67
2018-02-10T02:17:37.900Z,28.69
2018-02-10T02:20:05.300Z,28.66
2018-02-10T02:22:32.637Z,28.67
2018-02-10T02:24:59.973Z,28.52
2018-02-10T02:27:27.336Z,28.63
2018-02-10T02:29:54.773Z,28.58
2018-02-10T02:32:22.110Z,28.59
2018-02-10T02:34:49.497Z,28.63
2018-02-10T02:37:16.865Z,28.65
2018-02-10T02:39:44.276Z,28.62
2018-02-10T02:42:11.663Z,28.64
2018-02-10T02:44:39.052Z,28.66
2018-02-10T02:47:06.394Z,28.59
2018-02-10T02:49:33.782Z,28.58
2018-02-10T02:52:01.126Z,28.69
2018-02-10T02:54:28.458Z,28.60
2018-02-10T02:56:55.866Z,28.63
2018-02-10T02:59:23.202Z,28.67
2018-02-10T03:01:50.575Z,28.68
2018-02-10T03:04:17.906Z,28.69
2018-02-10T03:06:45.242Z,28.65
2018-02-10T03:09:12.617Z,28.61
2018-02-10T03:11:39.953Z,28.59
2018-02-10T03:14:07.318Z,28.77
2018-02-10T03:16:34.698Z,28.76
2018-02-10T03:19:02.038Z,28.71
2018-02-10T03:21:29.382Z,28.75
2018-02-10T03:23:56.726Z,28.75
2018-02-10T03:26:24.079Z,28.71
2018-02-10T03:28:51.457Z,28.67
2018-02-10T03:31:18.856Z,28.80
2018-02-10T03:33:46.224Z,28.70
2018-02-10T03:36:13.628Z,28.71
2018-02-10T03:38:40.970Z,28.78
2018-02-10T03:41:08.341Z,28.85
2018-02-10T03:43:35.727Z,28.67
2018-02-10T03:46:03.077Z,28.83
2018-02-10T03:48:30.463Z,28.81
2018-02-10T03:50:57.845Z,28.70
2018-02-10T03:53:25.205Z,28.78
2018-02-10T03:55:52.557Z,28.71
2018-02-10T03:58:19.954Z,28.80
2018-02-10T04:00:47.335Z,28.78
2018-02-10T04:03:14.746Z,28.70
2018-02-10T04:05:42.082Z,28.67
2018-02-10T04:08:09.489Z,28.84
2018-02-10T04:10:36.859Z,28.81
2018-02-10T04:13:04.202Z,28.77
2018-02-10T04:15:31.565Z,28.69
2018-02-10T04:17:58.905Z,28.78
2018-02-10T04:20:26.287Z,28.74
2018-02-10T04:22:53.669Z,28.77
2018-02-10T04:25:21.021Z,28.76
2018-02-10T04:27:48.423Z,28.86
2018-02-10T04:30:15.771Z,28.67
2018-02-10T04:32:43.115Z,28.69
2018-02-10T04:35:10.498Z,28.72
2018-02-10T04:37:37.849Z,28.72
2018-02-10T04:40:05.207Z,28.69
2018-02-10T04:42:32.575Z,28.78
2018-02-10T04:44:59.918Z,28.67
2018-02-10T04:47:27.299Z,28.69
2018-02-10T04:49:54.641Z,28.73
2018-02-10T04:52:22.022Z,28.70
2018-02-10T04:54:49.366Z,28.69
2018-02-10T04:57:16.701Z,28.64
2018-02-10T04:59:44.036Z,28.69
2018-02-10T05:02:11.371Z,28.59
2018-02-10T05:04:38.726Z,28.76
2018-02-10T05:07:06.111Z,28.67
2018-02-10T05:09:33.454Z,28.72
2018-02-10T05:12:00.797Z,28.72
2018-02-10T05:14:28.150Z,28.77
2018-02-10T05:16:55.546Z,28.68
2018-02-10T05:19:22.894Z,28.68
2018-02-10T05:21:50.261Z,28.66
2018-02-10T05:24:17.648Z,28.78
2018-02-10T05:26:45.012Z,28.71
2018-02-10T05:29:12.391Z,28.66
2018-02-10T05:31:39.734Z,28.75
2018-02-10T05:34:07.078Z,28.84
2018-02-10T05:36:34.444Z,28.82
2018-02-10T05:39:01.786Z,28.81
2018-02-10T05:41:29.162Z,28.78
2018-02-10T05:43:56.501Z,28.86
2018-02-10T05:46:23.841Z,28.74
2018-02-10T05:48:51.176Z,28.76
2018-02-10T05:51:18.525Z,28.83
2018-02-10T05:53:45.873Z,28.75
2018-02-10T05:56:13.254Z,28.91
2018-02-10T05:58:40.605Z,28.79
2018-02-10T06:01:07.990Z,28.83
2018-02-10T06:03:35.334Z,28.98
2018-02-10T06:06:02.682Z,28.86
2018-02-10T06:08:30.050Z,28.85
2018-02-10T06:10:57.426Z,28.80
2018-02-10T06:13:24.807Z,28.88
2018-02-10T06:15:52.150Z,28.90
2018-02-10T06:18:19.568Z,28.86
2018-02-10T06:20:46.951Z,28.84
2018-02-10T06:23:14.301Z,28.95
2018-02-10T06:25:41.749Z,28.86
2018-02-10T06:28:09.213Z,28.84
2018-02-10T06:30:36.550Z,28.90
2018-02-10T06:33:04.816Z,28.87
2018-02-10T06:35:32.162Z,28.84
2018-02-10T06:37:59.515Z,28.86
2018-02-10T06:40:26.902Z,28.82
2018-02-10T06:42:54.251Z,28.82
2018-02-10T06:45:21.605Z,28.71
2018-02-10T06:47:48.991Z,28.89
2018-02-10T06:50:16.365Z,28.83
2018-02-10T06:52:43.706Z,28.89
2018-02-10T06:55:11.089Z,28.76
2018-02-10T06:57:38.478Z,28.75
2018-02-10T07:00:05.824Z,28.81
2018-02-10T07:02:33.167Z,28.80
2018-02-10T07:05:00.546Z,28.80
2018-02-10T07:07:27.886Z,28.72
2018-02-10T07:09:55.259Z,28.76
2018-02-10T07:12:22.594Z,28.78
2018-02-10T07:14:49.982Z,28.80
2018-02-10T07:17:17.325Z,28.82
2018-02-10T07:19:44.752Z,28.87
2018-02-10T07:22:12.132Z,28.85
2018-02-10T07:24:39.477Z,28.79
2018-02-10T07:27:06.866Z,28.80
2018-02-10T07:29:34.216Z,28.84
2018-02-10T07:32:01.593Z,28.85
2018-02-10T07:34:28.942Z,28.80
2018-02-10T07:36:56.343Z,28.86
2018-02-10T07:39:23.686Z,28.73
2018-02-10T07:41:51.077Z,28.83
2018-02-10T07:44:18.421Z,28.69
2018-02-10T07:46:45.843Z,28.74
2018-02-10T07:49:13.254Z,28.77
2018-02-10T07:51:40.632Z,28.76
2018-02-10T07:54:08.055Z,28.80
2018-02-10T07:56:35.404Z,28.74
2018-02-10T07:59:02.947Z,28.77
2018-02-10T08:01:30.351Z,28.87
2018-02-10T08:03:57.698Z,28.78
2018-02-10T08:06:25.099Z,28.74
2018-02-10T08:08:52.498Z,28.78
2018-02-10T08:11:19.953Z,28.76
2018-02-10T08:13:47.404Z,28.78
2018-02-10T08:16:14.807Z,28.81
2018-02-10T08:18:42.244Z,28.88
2018-02-10T08:21:09.659Z,28.84
2018-02-10T08:23:37.059Z,28.90
2018-02-10T08:26:04.504Z,28.79
2018-02-10T08:28:31.862Z,28.85
2018-02-10T08:30:59.227Z,28.91
2018-02-10T08:33:26.615Z,28.88
2018-02-10T08:35:53.999Z,28.83
2018-02-10T08:38:21.408Z,28.89
2018-02-10T08:40:48.771Z,29.00
2018-02-10T08:43:16.151Z,28.88
2018-02-10T08:45:43.640Z,28.96
2018-02-10T08:48:11.059Z,28.99
2018-02-10T08:50:38.435Z,28.90
2018-02-10T08:53:05.843Z,29.03
2018-02-10T08:55:33.340Z,28.99
2018-02-10T08:58:00.702Z,29.03
2018-02-10T09:00:28.165Z,29.08
2018-02-10T09:02:55.532Z,28.90
2018-02-10T09:05:22.970Z,29.02
2018-02-10T09:07:50.350Z,29.09
2018-02-10T09:10:17.757Z,29.06
2018-02-10T09:12:45.222Z,29.03
2018-02-10T09:15:12.623Z,29.09
2018-02-10T09:17:40.037Z,29.10
2018-02-10T09:20:07.516Z,29.10
2018-02-10T09:22:35.167Z,28.95
2018-02-10T09:25:02.533Z,29.05
2018-02-10T09:27:29.982Z,28.98
2018-02-10T09:29:57.417Z,29.05
2018-02-10T09:32:24.797Z,29.05
2018-02-10T09:34:52.207Z,29.12
2018-02-10T09:37:19.707Z,29.10
2018-02-10T09:39:47.080Z,29.13
2018-02-10T09:42:14.495Z,29.14
2018-02-10T09:44:41.961Z,29.08
2018-02-10T09:47:09.349Z,29.08
2018-02-10T09:49:36.785Z,29.14
2018-02-10T09:52:04.168Z,29.09
2018-02-10T09:54:31.560Z,29.22
2018-02-10T09:56:58.923Z,29.15
2018-02-10T09:59:26.351Z,29.11
2018-02-10T10:01:53.810Z,29.15
2018-02-10T10:04:21.210Z,29.18
2018-02-10T10:06:48.714Z,29.26
2018-02-10T10:09:16.072Z,29.12
2018-02-10T10:11:43.519Z,29.16
2018-02-10T10:14:10.874Z,29.31
2018-02-10T10:16:38.326Z,29.26
2018-02-10T10:19:05.759Z,29.30
2018-02-10T10:21:33.139Z,29.22
2018-02-10T10:24:00.559Z,29.33
2018-02-10T10:26:27.924Z,29.23
2018-02-10T10:28:55.286Z,29.45
2018-02-10T10:31:22.711Z,29.49
2018-02-10T10:33:50.175Z,29.58
2018-02-10T10:36:17.681Z,29.50
2018-02-10T10:38:45.104Z,29.38
2018-02-10T10:41:12.528Z,29.36
2018-02-10T10:43:39.893Z,29.35
2018-02-10T10:46:07.258Z,29.49
2018-02-10T10:48:34.659Z,29.37
2018-02-10T10:51:02.014Z,29.22
2018-02-10T10:53:29.419Z,29.53
2018-02-10T10:55:56.791Z,29.73
2018-02-10T10:58:24.216Z,29.69
2018-02-10T11:00:51.610Z,29.96
2018-02-10T11:03:18.976Z,29.36
2018-02-10T11:05:46.368Z,30.57
2018-02-10T11:08:13.779Z,33.57
2018-02-10T11:10:41.187Z,34.82
2018-02-10T11:13:08.559Z,36.05
2018-02-10T11:15:35.990Z,36.99
2018-02-10T11:18:03.348Z,35.28
2018-02-10T11:20:30.751Z,35.79
2018-02-10T11:22:58.110Z,37.62
2018-02-10T11:25:25.463Z,36.36
2018-02-10T11:27:52.841Z,36.92
2018-02-10T11:30:20.246Z,36.64
2018-02-10T11:32:47.693Z,36.57
2018-02-10T11:35:15.120Z,35.69
2018-02-10T11:37:42.478Z,35.49
2018-02-10T11:40:09.837Z,36.20
2018-02-10T11:42:37.225Z,35.97
2018-02-10T11:45:04.574Z,35.51
2018-02-10T11:47:31.963Z,35.06
2018-02-10T11:49:59.331Z,35.23
2018-02-10T11:52:26.732Z,34.43
2018-02-10T11:54:54.157Z,34.35
2018-02-10T11:57:21.531Z,34.47
2018-02-10T11:59:48.887Z,33.99
2018-02-10T12:02:16.247Z,34.09
2018-02-10T12:04:43.647Z,33.77
2018-02-10T12:07:11.004Z,34.05
2018-02-10T12:09:38.371Z,33.51
2018-02-10T12:12:05.800Z,33.52
2018-02-10T12:14:33.208Z,33.42
2018-02-10T12:17:00.570Z,33.10
2018-02-10T12:19:27.943Z,33.05
2018-02-10T12:21:55.324Z,33.18
2018-02-10T12:24:22.670Z,32.95
2018-02-10T12:26:50.120Z,32.91
2018-02-10T12:29:17.469Z,32.75
2018-02-10T12:31:44.851Z,32.58
2018-02-10T12:34:12.211Z,32.81
2018-02-10T12:36:39.611Z,32.50
2018-02-10T12:39:06.971Z,32.26
2018-02-10T12:41:34.331Z,32.39
2018-02-10T12:44:02.359Z,32.48
2018-02-10T12:46:29.730Z,32.16
2018-02-10T12:48:57.092Z,32.05
2018-02-10T12:51:24.474Z,32.08
2018-02-10T12:53:51.828Z,32.04
2018-02-10T12:56:20.656Z,32.13
2018-02-10T12:58:48.027Z,32.01
2018-02-10T13:01:15.419Z,31.90
2018-02-10T13:03:42.818Z,31.99
2018-02-10T13:06:10.250Z,31.92
2018-02-10T13:08:37.645Z,32.20
2018-02-10T13:11:05.002Z,31.82
2018-02-10T13:13:32.402Z,31.68
2018-02-10T13:15:59.790Z,31.96
2018-02-10T13:18:27.183Z,32.05
2018-02-10T13:20:54.600Z,32.09
2018-02-10T13:23:21.962Z,32.11
2018-02-10T13:25:49.436Z,32.10
2018-02-10T13:28:16.839Z,32.21
2018-02-10T13:30:44.266Z,32.37
2018-02-10T13:33:11.615Z,32.32
2018-02-10T13:35:38.978Z,32.23
2018-02-10T13:38:06.404Z,32.61
2018-02-10T13:40:33.796Z,32.37
2018-02-10T13:43:01.236Z,32.58
2018-02-10T13:45:28.587Z,32.51
2018-02-10T13:47:55.994Z,32.69
2018-02-10T13:50:23.356Z,32.56
2018-02-10T13:52:50.760Z,32.60
2018-02-10T13:55:18.371Z,33.02
2018-02-10T13:57:45.746Z,32.70
2018-02-10T14:00:13.183Z,32.70
2018-02-10T14:02:40.560Z,32.78
2018-02-10T14:05:07.959Z,32.94
2018-02-10T14:07:35.336Z,33.01
2018-02-10T14:10:02.743Z,33.04
2018-02-10T14:12:30.100Z,33.13
2018-02-10T14:14:57.452Z,33.09
2018-02-10T14:17:24.815Z,33.15
2018-02-10T14:19:52.214Z,33.20
2018-02-10T14:22:19.620Z,33.24
2018-02-10T14:24:47.052Z,33.17
2018-02-10T14:27:14.455Z,33.34
2018-02-10T14:29:41.866Z,33.28
2018-02-10T14:32:09.235Z,33.14
2018-02-10T14:34:36.638Z,33.39
2018-02-10T14:37:04.009Z,33.54
2018-02-10T14:39:31.378Z,33.26
2018-02-10T14:41:58.747Z,33.24
2018-02-10T14:44:26.116Z,33.28
2018-02-10T14:46:53.488Z,33.38
2018-02-10T14:49:20.850Z,33.58
2018-02-10T14:51:48.255Z,33.53
2018-02-10T14:54:15.633Z,33.42
2018-02-10T14:56:43.018Z,33.58
2018-02-10T14:59:10.431Z,33.73
2018-02-10T15:01:37.820Z,33.75
2018-02-10T15:04:05.191Z,33.67
2018-02-10T15:06:32.550Z,33.48
2018-02-10T15:08:59.901Z,33.72
2018-02-10T15:11:27.278Z,33.59
2018-02-10T15:13:54.682Z,33.76
2018-02-10T15:16:22.057Z,33.81
2018-02-10T15:18:49.431Z,33.69
2018-02-10T15:21:16.812Z,33.81
2018-02-10T15:23:44.289Z,33.57
2018-02-10T15:26:11.767Z,33.81
2018-02-10T15:28:39.151Z,33.82
2018-02-10T15:31:06.591Z,33.78
2018-02-10T15:33:33.958Z,33.81
2018-02-10T15:36:01.358Z,33.79
2018-02-10T15:38:28.739Z,33.69
2018-02-10T15:40:56.107Z,33.83
2018-02-10T15:43:23.499Z,33.63
2018-02-10T15:45:50.854Z,33.84
2018-02-10T15:48:18.222Z,33.75
2018-02-10T15:50:45.615Z,33.74
2018-02-10T15:53:13.023Z,33.72
2018-02-10T15:55:40.476Z,33.62
2018-02-10T15:58:07.846Z,33.77
2018-02-10T16:00:35.235Z,33.73
2018-02-10T16:03:02.589Z,33.75
2018-02-10T16:05:29.963Z,33.72
